IAW151 LYBE-LOWW
Flight info
| Callsign | IAW151 |
|---|---|
| Flight time | N/A |
| Altitude | 34000 |
| Route | TISAK DCT PARAK DCT BALUX DCT TORNO DCT NATEX NATEX2W |
| Aircraft | B738/M-SDE2E3FGHIRWXY/LB1 |
Departure
| Time | 2026-04-29 18:10 |
|---|---|
| Airport | Belgrade Nikola Tesla Airport (LYBE) |
Arrival
| Time | N/A |
|---|---|
| Airport | Vienna International Airport (LOWW) |
| Time | Latitude | Longitude | Altitude | Speed | Heading |
|---|---|---|---|---|---|
| 2026-04-29 17:52 | 44.81862 | 20.29540 | 342 ft | 0 kts | 122° |
| 2026-04-29 18:01 | 44.81867 | 20.29528 | 342 ft | 2 kts | 121° |
| 2026-04-29 18:01 | 44.81875 | 20.29510 | 342 ft | 2 kts | 122° |
| 2026-04-29 18:02 | 44.81880 | 20.29498 | 342 ft | 2 kts | 122° |
| 2026-04-29 18:02 | 44.81884 | 20.29478 | 342 ft | 2 kts | 83° |
| 2026-04-29 18:02 | 44.81880 | 20.29458 | 342 ft | 2 kts | 52° |
| 2026-04-29 18:02 | 44.81873 | 20.29449 | 342 ft | 1 kts | 33° |
| 2026-04-29 18:03 | 44.81868 | 20.29445 | 342 ft | 0 kts | 31° |
| 2026-04-29 18:04 | 44.81876 | 20.29452 | 342 ft | 4 kts | 31° |
| 2026-04-29 18:04 | 44.81931 | 20.29473 | 342 ft | 11 kts | 340° |
| 2026-04-29 18:04 | 44.82016 | 20.29450 | 342 ft | 13 kts | 22° |
| 2026-04-29 18:05 | 44.82101 | 20.29532 | 342 ft | 15 kts | 60° |
| 2026-04-29 18:05 | 44.82080 | 20.29675 | 342 ft | 16 kts | 120° |
| 2026-04-29 18:05 | 44.82019 | 20.29815 | 342 ft | 17 kts | 122° |
| 2026-04-29 18:05 | 44.81944 | 20.29983 | 342 ft | 26 kts | 122° |
| 2026-04-29 18:06 | 44.81826 | 20.30250 | 342 ft | 33 kts | 120° |
| 2026-04-29 18:06 | 44.81706 | 20.30519 | 342 ft | 31 kts | 122° |
| 2026-04-29 18:06 | 44.81592 | 20.30782 | 342 ft | 30 kts | 124° |
| 2026-04-29 18:06 | 44.81476 | 20.31026 | 342 ft | 29 kts | 120° |
| 2026-04-29 18:07 | 44.81372 | 20.31272 | 342 ft | 28 kts | 121° |
| 2026-04-29 18:07 | 44.81270 | 20.31502 | 342 ft | 27 kts | 121° |
| 2026-04-29 18:07 | 44.81172 | 20.31725 | 342 ft | 26 kts | 121° |
| 2026-04-29 18:07 | 44.81075 | 20.31940 | 342 ft | 25 kts | 121° |
| 2026-04-29 18:08 | 44.80996 | 20.32134 | 342 ft | 16 kts | 105° |
| 2026-04-29 18:08 | 44.80994 | 20.32174 | 342 ft | 0 kts | 84° |
| 2026-04-29 18:09 | 44.81002 | 20.32215 | 342 ft | 13 kts | 62° |
| 2026-04-29 18:09 | 44.81070 | 20.32209 | 342 ft | 13 kts | 295° |
| 2026-04-29 18:09 | 44.81151 | 20.32019 | 342 ft | 51 kts | 301° |
| 2026-04-29 18:09 | 44.81478 | 20.31288 | 342 ft | 124 kts | 301° |
| 2026-04-29 18:10 | 44.82045 | 20.29991 | 390 ft | 179 kts | 298° |
| 2026-04-29 18:10 | 44.82645 | 20.28492 | 1296 ft | 176 kts | 300° |
| 2026-04-29 18:10 | 44.83361 | 20.27071 | 2006 ft | 185 kts | 311° |
| 2026-04-29 18:10 | 44.84157 | 20.25613 | 2570 ft | 195 kts | 308° |
| 2026-04-29 18:11 | 44.84917 | 20.23964 | 3149 ft | 206 kts | 304° |
| 2026-04-29 18:11 | 44.85655 | 20.22233 | 3807 ft | 211 kts | 304° |
| 2026-04-29 18:11 | 44.86443 | 20.20385 | 4285 ft | 228 kts | 303° |
| 2026-04-29 18:11 | 44.87292 | 20.18416 | 4748 ft | 246 kts | 303° |
| 2026-04-29 18:12 | 44.88198 | 20.16324 | 5441 ft | 254 kts | 302° |
| 2026-04-29 18:12 | 44.89125 | 20.14185 | 5947 ft | 261 kts | 302° |
| 2026-04-29 18:12 | 44.90093 | 20.11992 | 5999 ft | 261 kts | 303° |
| 2026-04-29 18:12 | 44.91106 | 20.09773 | 6370 ft | 277 kts | 303° |
| 2026-04-29 18:13 | 44.92129 | 20.07558 | 7418 ft | 270 kts | 303° |
| 2026-04-29 18:13 | 44.93290 | 20.05514 | 8262 ft | 270 kts | 320° |
| 2026-04-29 18:13 | 44.94975 | 20.04358 | 9088 ft | 272 kts | 346° |